Adrian, Washington
Current Conditions -  °F | °C
As of 6:06 AM on Saturday 20 Dec 2014 (Local Time) from KEPH Reporting Station
Light Rain Light Rain  
Wind Chill: 32°   Ceiling: 2500
Heat Index: 37°   Visibility: 5mi
Dew Point: 36°   Wind: 6mph
Humidity: 96%   Direction: 20°NNE
Pressure: 29.84"   Gusts: NA
Location:  47.4314°N, 119.485°W
Report Text: KEPH 201406Z AUTO 02005KT 5SM -RA BR FEW009 SCT017 OVC025 03/02 A2984 RMK AO2 P0001 T00280022
Loading
Personal Weather Stations






























Interactive Weather Map New forecast layout! Learn more

10-Day Weather Forecast

Advertisements
Track Severe Weather on mobile